Time;durP1;ratioP1;P1;durP2;ratioP2;P2;SDS_P1;SDS_P2;PMS_P1;PMS_P2;Temp;Humidity;BMP_temperature;BMP_pressure;BME280_temperature;BME280_humidity;BME280_pressure;Samples;Min_cycle;Max_cycle;Signal;HPM_P1;HPM_P2
2023/11/19 00:00:23;;;;;;;9.40;4.70;;;;;;;;;;5098709;28;20221;-66
2023/11/19 00:02:51;;;;;;;8.03;4.87;;;;;;;;;;5098771;28;20253;-66
2023/11/19 00:05:21;;;;;;;9.97;4.70;;;;;;;;;;5098708;28;20717;-66
2023/11/19 00:07:49;;;;;;;8.80;5.67;;;;;;;;;;5102675;28;20194;-66
2023/11/19 00:10:19;;;;;;;6.80;4.90;;;;;;;;;;5098900;28;20656;-66
2023/11/19 00:12:47;;;;;;;8.87;5.33;;;;;;;;;;5099229;28;20221;-66
2023/11/19 00:15:17;;;;;;;6.50;4.87;;;;;;;;;;5106141;27;20258;-66
2023/11/19 00:17:47;;;;;;;7.03;5.27;;;;;;;;;;5098904;28;20210;-66
2023/11/19 00:20:17;;;;;;;7.00;5.13;;;;;;;;;;5099054;28;20259;-66
2023/11/19 00:22:48;;;;;;;8.50;4.83;;;;;;;;;;5118115;28;20231;-66
2023/11/19 00:25:18;;;;;;;9.47;5.47;;;;;;;;;;5104443;28;20198;-66
2023/11/19 00:27:46;;;;;;;8.43;5.10;;;;;;;;;;5098289;28;20197;-66
2023/11/19 00:30:15;;;;;;;9.53;5.63;;;;;;;;;;5098599;28;20209;-66
2023/11/19 00:32:43;;;;;;;9.23;5.20;;;;;;;;;;5098090;28;20256;-66
2023/11/19 00:35:13;;;;;;;10.53;5.80;;;;;;;;;;5098200;28;20213;-66
2023/11/19 00:37:45;;;;;;;8.83;5.70;;;;;;;;;;5098233;28;20202;-66
2023/11/19 00:40:17;;;;;;;9.10;4.93;;;;;;;;;;5097839;28;20221;-65
2023/11/19 00:42:45;;;;;;;9.10;5.67;;;;;;;;;;5099122;28;20229;-66
2023/11/19 00:45:14;;;;;;;7.87;5.30;;;;;;;;;;5097874;28;20207;-66
2023/11/19 00:47:42;;;;;;;8.63;5.83;;;;;;;;;;5097703;28;20198;-66
2023/11/19 00:50:13;;;;;;;11.50;6.27;;;;;;;;;;5098273;28;20575;-66
2023/11/19 00:52:42;;;;;;;8.93;5.97;;;;;;;;;;5097770;28;20553;-66
2023/11/19 00:55:13;;;;;;;12.73;6.93;;;;;;;;;;5109078;28;20211;-66
2023/11/19 00:57:42;;;;;;;9.13;6.40;;;;;;;;;;5103314;28;20200;-66
2023/11/19 01:00:18;;;;;;;8.60;5.27;;;;;;;;;;5097696;28;20282;-66
2023/11/19 01:02:49;;;;;;;7.17;4.90;;;;;;;;;;5097425;28;20648;-66
2023/11/19 01:05:21;;;;;;;9.47;5.67;;;;;;;;;;5097782;28;20205;-66
2023/11/19 01:07:50;;;;;;;9.93;5.43;;;;;;;;;;5097555;28;20648;-66
2023/11/19 01:10:18;;;;;;;7.87;5.33;;;;;;;;;;5096991;28;20201;-66
2023/11/19 01:12:48;;;;;;;11.80;5.80;;;;;;;;;;5097453;28;20566;-66
2023/11/19 01:15:18;;;;;;;7.60;5.47;;;;;;;;;;5102667;28;20212;-66
2023/11/19 01:17:47;;;;;;;9.30;5.17;;;;;;;;;;5097551;28;20251;-66
2023/11/19 01:20:18;;;;;;;7.43;4.70;;;;;;;;;;5097826;28;20273;-66
2023/11/19 01:22:48;;;;;;;8.13;5.17;;;;;;;;;;5097444;28;20226;-66
2023/11/19 01:25:17;;;;;;;8.43;4.70;;;;;;;;;;5097874;28;20205;-66
2023/11/19 01:27:45;;;;;;;10.93;5.63;;;;;;;;;;5113227;28;20608;-66
2023/11/19 01:30:15;;;;;;;10.40;5.90;;;;;;;;;;5104782;28;20747;-66
2023/11/19 01:32:43;;;;;;;8.70;5.40;;;;;;;;;;5097110;28;20704;-66
2023/11/19 01:35:14;;;;;;;6.57;4.80;;;;;;;;;;5118062;28;20614;-66
2023/11/19 01:37:42;;;;;;;7.93;4.83;;;;;;;;;;5109261;28;20193;-66
2023/11/19 01:40:11;;;;;;;6.17;4.80;;;;;;;;;;5097321;28;20577;-66
2023/11/19 01:42:40;;;;;;;7.50;4.90;;;;;;;;;;5098750;28;20232;-66
2023/11/19 01:45:09;;;;;;;7.63;5.57;;;;;;;;;;5096860;28;20546;-66
2023/11/19 01:47:40;;;;;;;6.60;4.40;;;;;;;;;;5097252;28;20224;-66
2023/11/19 01:50:09;;;;;;;8.80;4.83;;;;;;;;;;5097916;28;20231;-66
2023/11/19 01:52:37;;;;;;;6.63;4.67;;;;;;;;;;5096603;28;20244;-66
2023/11/19 01:55:08;;;;;;;7.83;4.13;;;;;;;;;;5100320;28;20209;-66
2023/11/19 01:57:37;;;;;;;6.97;4.93;;;;;;;;;;5105171;28;20197;-66
2023/11/19 02:00:07;;;;;;;8.40;4.87;;;;;;;;;;5103839;28;20220;-66
2023/11/19 02:02:35;;;;;;;7.47;4.43;;;;;;;;;;5108331;28;20221;-66
2023/11/19 02:05:05;;;;;;;7.17;4.43;;;;;;;;;;5101337;28;20201;-66
2023/11/19 02:07:36;;;;;;;6.87;4.37;;;;;;;;;;5104812;28;20274;-66
2023/11/19 02:10:14;;;;;;;6.23;4.67;;;;;;;;;;5101459;28;20250;-66
2023/11/19 02:12:44;;;;;;;6.03;3.97;;;;;;;;;;5101720;28;20222;-66
2023/11/19 02:15:14;;;;;;;5.97;4.57;;;;;;;;;;5103877;28;20216;-66
2023/11/19 02:17:43;;;;;;;6.30;4.33;;;;;;;;;;5101484;28;20213;-66
2023/11/19 02:20:15;;;;;;;5.27;4.00;;;;;;;;;;5107035;28;20227;-66
2023/11/19 02:22:44;;;;;;;7.77;4.50;;;;;;;;;;5121927;28;20221;-66
2023/11/19 02:25:20;;;;;;;8.53;5.07;;;;;;;;;;5119744;28;20228;-67
2023/11/19 02:27:55;;;;;;;9.20;5.00;;;;;;;;;;5100282;28;20205;-66
2023/11/19 02:30:26;;;;;;;5.53;4.53;;;;;;;;;;5113294;27;20193;-66
2023/11/19 02:32:57;;;;;;;7.83;4.77;;;;;;;;;;5100342;28;20653;-67
2023/11/19 02:35:25;;;;;;;7.27;4.70;;;;;;;;;;5100673;28;20233;-66
2023/11/19 02:37:54;;;;;;;7.33;4.40;;;;;;;;;;5101029;28;20292;-66
2023/11/19 02:40:24;;;;;;;8.00;4.47;;;;;;;;;;5100228;28;20275;-67
2023/11/19 02:42:54;;;;;;;5.37;4.13;;;;;;;;;;5102038;28;20222;-66
2023/11/19 02:45:22;;;;;;;6.83;4.90;;;;;;;;;;5099809;28;20209;-66
2023/11/19 02:47:50;;;;;;;6.43;4.30;;;;;;;;;;5100474;28;20266;-66
2023/11/19 02:50:24;;;;;;;7.27;4.30;;;;;;;;;;5100081;28;20572;-66
2023/11/19 02:52:54;;;;;;;5.03;4.10;;;;;;;;;;5099834;28;20225;-66
2023/11/19 02:55:23;;;;;;;6.50;3.90;;;;;;;;;;5100319;28;20209;-66
2023/11/19 02:57:53;;;;;;;8.53;4.50;;;;;;;;;;5107287;28;20197;-66
2023/11/19 03:00:31;;;;;;;9.63;4.50;;;;;;;;;;5104073;28;20687;-66
2023/11/19 03:02:59;;;;;;;5.47;4.70;;;;;;;;;;5099969;28;20251;-66
2023/11/19 03:05:30;;;;;;;6.30;4.07;;;;;;;;;;5098835;28;20542;-66
2023/11/19 03:07:58;;;;;;;6.23;4.10;;;;;;;;;;5111707;28;20603;-66
2023/11/19 03:10:26;;;;;;;7.23;4.47;;;;;;;;;;5100304;28;20279;-66
2023/11/19 03:12:56;;;;;;;6.97;4.33;;;;;;;;;;5104745;28;20233;-66
2023/11/19 03:15:25;;;;;;;7.93;4.10;;;;;;;;;;5103067;28;20292;-66
2023/11/19 03:17:54;;;;;;;7.80;4.40;;;;;;;;;;5100024;28;20205;-66
2023/11/19 03:20:23;;;;;;;6.43;4.47;;;;;;;;;;5100033;28;20208;-66
2023/11/19 03:22:52;;;;;;;9.57;4.20;;;;;;;;;;5113361;28;20232;-66
2023/11/19 03:25:20;;;;;;;9.73;4.60;;;;;;;;;;5101482;28;20237;-66
2023/11/19 03:27:48;;;;;;;5.97;4.50;;;;;;;;;;5099469;28;20201;-66
2023/11/19 03:30:21;;;;;;;5.87;4.20;;;;;;;;;;5101687;28;20201;-66
2023/11/19 03:33:00;;;;;;;7.60;4.60;;;;;;;;;;5099305;28;20232;-66
2023/11/19 03:35:29;;;;;;;6.77;4.83;;;;;;;;;;5099796;28;20612;-67
2023/11/19 03:37:56;;;;;;;6.20;4.00;;;;;;;;;;5098614;28;20202;-66
2023/11/19 03:40:25;;;;;;;7.17;4.23;;;;;;;;;;5099275;28;20217;-66
2023/11/19 03:42:53;;;;;;;9.17;4.70;;;;;;;;;;5101319;28;20684;-66
2023/11/19 03:45:22;;;;;;;6.27;4.67;;;;;;;;;;5097958;28;20562;-66
2023/11/19 03:47:50;;;;;;;7.20;4.53;;;;;;;;;;5099353;28;20216;-67
2023/11/19 03:50:20;;;;;;;8.87;4.70;;;;;;;;;;5098682;28;20202;-66
2023/11/19 03:52:50;;;;;;;5.83;4.30;;;;;;;;;;5098701;28;20251;-66
2023/11/19 03:55:19;;;;;;;6.70;3.83;;;;;;;;;;5099125;28;20204;-67
2023/11/19 03:57:48;;;;;;;9.40;4.37;;;;;;;;;;5100482;28;20225;-67
2023/11/19 04:00:17;;;;;;;5.53;3.73;;;;;;;;;;5102651;28;20205;-67
2023/11/19 04:02:46;;;;;;;6.43;5.10;;;;;;;;;;5098848;28;20267;-67
2023/11/19 04:05:15;;;;;;;6.67;4.57;;;;;;;;;;5098548;28;20198;-66
2023/11/19 04:07:43;;;;;;;10.33;4.53;;;;;;;;;;5099561;28;20201;-66
2023/11/19 04:10:11;;;;;;;7.03;4.40;;;;;;;;;;5102390;28;20201;-66
2023/11/19 04:12:39;;;;;;;8.73;4.77;;;;;;;;;;5104500;27;20761;-66
2023/11/19 04:15:08;;;;;;;10.70;5.57;;;;;;;;;;5101770;28;20197;-66
2023/11/19 04:17:36;;;;;;;10.17;5.00;;;;;;;;;;5098447;28;20206;-66
2023/11/19 04:20:10;;;;;;;9.47;5.10;;;;;;;;;;5112161;28;20661;-66
2023/11/19 04:22:38;;;;;;;7.50;4.53;;;;;;;;;;5119187;28;20260;-66
2023/11/19 04:25:07;;;;;;;6.80;4.50;;;;;;;;;;5119414;28;20234;-66
2023/11/19 04:27:35;;;;;;;9.77;5.23;;;;;;;;;;5112867;28;20207;-66
2023/11/19 04:30:03;;;;;;;6.40;4.37;;;;;;;;;;5106000;27;20201;-66
2023/11/19 04:32:31;;;;;;;8.13;4.83;;;;;;;;;;5098699;28;20225;-66
2023/11/19 04:34:59;;;;;;;6.87;4.93;;;;;;;;;;5098115;28;20646;-66
2023/11/19 04:37:29;;;;;;;8.40;4.53;;;;;;;;;;5098867;28;20259;-66
2023/11/19 04:39:57;;;;;;;6.70;4.17;;;;;;;;;;5098020;28;20197;-66
2023/11/19 04:42:25;;;;;;;7.60;4.90;;;;;;;;;;5099433;28;20701;-66
2023/11/19 04:44:55;;;;;;;6.70;4.50;;;;;;;;;;5097914;28;20672;-67
2023/11/19 04:47:23;;;;;;;7.73;5.13;;;;;;;;;;5097986;28;20197;-66
2023/11/19 04:49:52;;;;;;;7.07;4.90;;;;;;;;;;5112547;27;20279;-67
2023/11/19 04:52:21;;;;;;;7.10;4.00;;;;;;;;;;5120712;27;20745;-67
2023/11/19 04:54:51;;;;;;;5.97;4.60;;;;;;;;;;5128364;27;20236;-67
2023/11/19 04:57:19;;;;;;;8.00;5.03;;;;;;;;;;5120990;27;20274;-67
2023/11/19 04:59:48;;;;;;;6.70;4.37;;;;;;;;;;5120509;27;20205;-67
2023/11/19 05:02:16;;;;;;;7.47;3.70;;;;;;;;;;5106195;27;20225;-67
2023/11/19 05:04:46;;;;;;;6.63;4.50;;;;;;;;;;5097543;28;20276;-66
2023/11/19 05:07:15;;;;;;;5.47;3.97;;;;;;;;;;5097948;28;20538;-67
2023/11/19 05:09:44;;;;;;;6.90;4.07;;;;;;;;;;5112785;28;20398;-67
2023/11/19 05:12:13;;;;;;;7.70;4.40;;;;;;;;;;5118985;28;20220;-66
2023/11/19 05:14:47;;;;;;;4.60;3.80;;;;;;;;;;5103963;28;20224;-67
2023/11/19 05:17:17;;;;;;;6.20;3.80;;;;;;;;;;5098752;27;20228;-67
2023/11/19 05:19:47;;;;;;;9.37;3.93;;;;;;;;;;5105950;28;20201;-67
2023/11/19 05:22:16;;;;;;;4.63;3.77;;;;;;;;;;5098313;28;20233;-67
2023/11/19 05:24:44;;;;;;;5.60;3.97;;;;;;;;;;5097757;28;20206;-66
2023/11/19 05:27:14;;;;;;;5.93;4.30;;;;;;;;;;5098024;28;20201;-67
2023/11/19 05:29:43;;;;;;;8.23;4.97;;;;;;;;;;5100074;28;20206;-67
2023/11/19 05:32:12;;;;;;;6.13;4.20;;;;;;;;;;5120784;27;20226;-67
2023/11/19 05:34:40;;;;;;;6.03;4.27;;;;;;;;;;5127186;28;20207;-66
2023/11/19 05:37:11;;;;;;;9.17;4.57;;;;;;;;;;5118628;27;20284;-66
2023/11/19 05:39:39;;;;;;;7.13;3.97;;;;;;;;;;5098074;28;20202;-66
2023/11/19 05:42:07;;;;;;;8.10;4.17;;;;;;;;;;5099687;28;20225;-66
2023/11/19 05:44:37;;;;;;;5.07;3.60;;;;;;;;;;5106883;28;20212;-66
2023/11/19 05:47:08;;;;;;;6.50;4.50;;;;;;;;;;5118079;28;20639;-66
2023/11/19 05:49:36;;;;;;;5.90;4.30;;;;;;;;;;5118109;28;20212;-66
2023/11/19 05:52:07;;;;;;;8.00;3.93;;;;;;;;;;5101278;28;20234;-66
2023/11/19 05:54:41;;;;;;;6.37;3.40;;;;;;;;;;5097364;28;20223;-66
2023/11/19 05:57:09;;;;;;;5.03;3.50;;;;;;;;;;5098477;28;20198;-66
2023/11/19 05:59:39;;;;;;;6.20;4.17;;;;;;;;;;5106539;28;20198;-66
2023/11/19 06:02:07;;;;;;;5.10;3.93;;;;;;;;;;5097063;28;20225;-66
2023/11/19 06:04:35;;;;;;;4.67;3.87;;;;;;;;;;5097235;28;20201;-66
2023/11/19 06:07:05;;;;;;;8.33;3.67;;;;;;;;;;5120083;28;20265;-67
2023/11/19 06:09:34;;;;;;;5.73;4.10;;;;;;;;;;5099643;28;20206;-67
2023/11/19 06:12:03;;;;;;;6.67;4.17;;;;;;;;;;5096647;28;20225;-66
2023/11/19 06:14:31;;;;;;;4.60;3.80;;;;;;;;;;5096807;28;20213;-67
2023/11/19 06:17:01;;;;;;;5.20;4.03;;;;;;;;;;5096411;28;20746;-67
2023/11/19 06:19:29;;;;;;;6.70;3.33;;;;;;;;;;5113900;28;20236;-66
2023/11/19 06:21:58;;;;;;;5.77;3.60;;;;;;;;;;5117801;28;20225;-66
2023/11/19 06:24:26;;;;;;;7.90;3.87;;;;;;;;;;5117693;28;20209;-66
2023/11/19 06:26:54;;;;;;;7.30;3.60;;;;;;;;;;5110439;28;20653;-67
2023/11/19 06:29:22;;;;;;;3.70;3.30;;;;;;;;;;5105864;28;20204;-67
2023/11/19 06:31:51;;;;;;;7.00;4.10;;;;;;;;;;5104762;28;20225;-66
2023/11/19 06:34:20;;;;;;;6.43;3.93;;;;;;;;;;5096638;28;20633;-66
2023/11/19 06:36:48;;;;;;;6.37;3.33;;;;;;;;;;5097283;28;20289;-66
2023/11/19 06:39:17;;;;;;;6.47;4.00;;;;;;;;;;5096577;28;20647;-67
2023/11/19 06:41:46;;;;;;;8.80;7.43;;;;;;;;;;5101280;28;20229;-66
2023/11/19 06:44:14;;;;;;;8.20;4.77;;;;;;;;;;5111203;28;20231;-66
2023/11/19 06:46:42;;;;;;;7.27;3.77;;;;;;;;;;5106792;28;20267;-67
2023/11/19 06:49:10;;;;;;;5.50;4.10;;;;;;;;;;5099618;28;20660;-66
2023/11/19 06:51:44;;;;;;;3.83;3.43;;;;;;;;;;5100459;28;20659;-66
2023/11/19 06:54:12;;;;;;;4.87;3.87;;;;;;;;;;5100543;28;20198;-66
2023/11/19 06:56:40;;;;;;;6.93;4.13;;;;;;;;;;5100770;28;20258;-66
2023/11/19 06:59:08;;;;;;;5.40;3.10;;;;;;;;;;5110197;28;20243;-66
2023/11/19 07:01:37;;;;;;;7.17;3.97;;;;;;;;;;5100627;28;20275;-67
2023/11/19 07:04:09;;;;;;;5.33;3.80;;;;;;;;;;5099732;28;20632;-67
2023/11/19 07:06:37;;;;;;;4.83;3.40;;;;;;;;;;5100134;28;20216;-67
2023/11/19 07:09:10;;;;;;;4.37;3.80;;;;;;;;;;5099200;28;20251;-66
2023/11/19 07:11:39;;;;;;;7.77;3.77;;;;;;;;;;5099894;28;20217;-66
2023/11/19 07:14:07;;;;;;;5.93;3.67;;;;;;;;;;5102233;27;20211;-67
2023/11/19 07:16:37;;;;;;;4.17;3.53;;;;;;;;;;5108145;27;20205;-67
2023/11/19 07:19:06;;;;;;;5.33;3.70;;;;;;;;;;5099331;28;20201;-67
2023/11/19 07:21:35;;;;;;;4.37;3.20;;;;;;;;;;5099908;28;20270;-67
2023/11/19 07:24:08;;;;;;;5.40;3.60;;;;;;;;;;5100243;28;20227;-66
2023/11/19 07:26:37;;;;;;;4.03;2.93;;;;;;;;;;5100122;28;20212;-66
2023/11/19 07:29:07;;;;;;;4.63;3.63;;;;;;;;;;5103270;27;20201;-67
2023/11/19 07:31:37;;;;;;;5.03;3.33;;;;;;;;;;5100245;28;20712;-72
2023/11/19 07:34:06;;;;;;;7.40;3.67;;;;;;;;;;5099379;28;20201;-71
2023/11/19 07:36:35;;;;;;;5.80;4.10;;;;;;;;;;5100011;28;20221;-71
2023/11/19 07:39:04;;;;;;;6.10;3.80;;;;;;;;;;5099101;28;20229;-71
2023/11/19 07:41:34;;;;;;;5.80;3.87;;;;;;;;;;5101583;28;20222;-71
2023/11/19 07:44:02;;;;;;;5.33;3.90;;;;;;;;;;5099087;28;20230;-71
2023/11/19 07:46:31;;;;;;;7.40;4.43;;;;;;;;;;5099353;28;20220;-72
2023/11/19 07:49:00;;;;;;;8.23;4.53;;;;;;;;;;5102753;28;20209;-71
2023/11/19 07:51:28;;;;;;;6.97;4.60;;;;;;;;;;5110400;28;20757;-71
2023/11/19 07:53:56;;;;;;;7.20;4.40;;;;;;;;;;5098627;28;20197;-71
2023/11/19 07:56:24;;;;;;;6.50;4.00;;;;;;;;;;5099662;28;20205;-71
2023/11/19 07:58:54;;;;;;;8.83;4.23;;;;;;;;;;5107116;28;20293;-70
2023/11/19 08:01:23;;;;;;;4.73;3.53;;;;;;;;;;5099629;28;20229;-71
2023/11/19 08:03:51;;;;;;;5.77;3.60;;;;;;;;;;5098583;28;20401;-71
2023/11/19 08:06:22;;;;;;;7.40;3.80;;;;;;;;;;5098898;28;20252;-72
2023/11/19 08:08:51;;;;;;;4.63;3.83;;;;;;;;;;5102644;28;20193;-72
2023/11/19 08:11:20;;;;;;;6.43;3.67;;;;;;;;;;5099148;28;20226;-73
2023/11/19 08:13:49;;;;;;;6.73;4.13;;;;;;;;;;5098200;28;20208;-71
2023/11/19 08:16:18;;;;;;;5.13;3.50;;;;;;;;;;5101901;28;20571;-72
2023/11/19 08:18:46;;;;;;;5.83;3.50;;;;;;;;;;5118311;28;20201;-72
2023/11/19 08:21:14;;;;;;;4.73;3.70;;;;;;;;;;5119511;28;20236;-72
2023/11/19 08:23:43;;;;;;;6.83;3.53;;;;;;;;;;5119193;27;20319;-72
2023/11/19 08:26:12;;;;;;;6.47;3.93;;;;;;;;;;5116758;28;20201;-71
2023/11/19 08:28:48;;;;;;;5.80;3.67;;;;;;;;;;5097499;28;20567;-72
2023/11/19 08:31:21;;;;;;;6.43;3.47;;;;;;;;;;5097169;28;20225;-68
2023/11/19 08:33:49;;;;;;;6.00;3.50;;;;;;;;;;5097578;28;20197;-68
2023/11/19 08:36:17;;;;;;;7.67;3.60;;;;;;;;;;5098762;28;20262;-68
2023/11/19 08:38:46;;;;;;;6.67;3.83;;;;;;;;;;5098359;28;20202;-68
2023/11/19 08:41:14;;;;;;;4.33;3.57;;;;;;;;;;5100044;28;20253;-67
2023/11/19 08:43:51;;;;;;;6.93;4.10;;;;;;;;;;5097608;28;20228;-66
2023/11/19 08:46:20;;;;;;;5.93;3.57;;;;;;;;;;5097902;28;20661;-67
2023/11/19 08:52:11;;;;;;;3.90;3.50;;;;;;;;;;5123954;27;20718;-66
2023/11/19 08:54:43;;;;;;;5.97;3.40;;;;;;;;;;5121211;27;20201;-66
2023/11/19 08:57:11;;;;;;;5.83;3.33;;;;;;;;;;5103880;28;20201;-67
2023/11/19 08:59:42;;;;;;;4.70;3.17;;;;;;;;;;5098869;28;20703;-67
2023/11/19 09:02:14;;;;;;;6.67;3.57;;;;;;;;;;5098052;28;20298;-67
2023/11/19 09:04:42;;;;;;;4.90;3.20;;;;;;;;;;5098099;28;20679;-66
2023/11/19 09:09:55;;;;;;;5.23;3.27;;;;;;;;;;5096592;28;20231;-67
2023/11/19 09:12:25;;;;;;;4.93;3.53;;;;;;;;;;5097323;28;20294;-66
2023/11/19 09:14:54;;;;;;;4.47;3.37;;;;;;;;;;5099597;28;20287;-66
2023/11/19 09:17:23;;;;;;;7.00;3.50;;;;;;;;;;5097261;28;20244;-66
2023/11/19 09:19:51;;;;;;;5.57;3.77;;;;;;;;;;5097328;28;20198;-66
2023/11/19 09:22:19;;;;;;;4.23;3.50;;;;;;;;;;5097760;28;20308;-66
2023/11/19 09:24:48;;;;;;;6.93;3.57;;;;;;;;;;5097370;28;20279;-66
2023/11/19 09:27:15;;;;;;;6.03;3.90;;;;;;;;;;5097386;28;20588;-66
2023/11/19 09:29:45;;;;;;;5.00;3.53;;;;;;;;;;5105763;28;20225;-66
2023/11/19 09:32:13;;;;;;;4.53;3.57;;;;;;;;;;5103994;28;20300;-66
2023/11/19 09:34:43;;;;;;;4.83;4.17;;;;;;;;;;5096964;28;20246;-66
2023/11/19 09:37:10;;;;;;;4.87;3.33;;;;;;;;;;5097958;28;20237;-66
2023/11/19 09:39:43;;;;;;;5.43;3.57;;;;;;;;;;5097050;28;20201;-66
2023/11/19 09:42:11;;;;;;;4.90;3.27;;;;;;;;;;5097327;28;20229;-66
2023/11/19 09:44:39;;;;;;;3.53;3.23;;;;;;;;;;5096295;28;20336;-66
2023/11/19 09:47:07;;;;;;;4.33;3.07;;;;;;;;;;5096922;28;20197;-65
2023/11/19 09:49:36;;;;;;;6.13;3.40;;;;;;;;;;5097489;28;20216;-66
2023/11/19 09:52:06;;;;;;;3.73;3.37;;;;;;;;;;5096075;28;20305;-65
2023/11/19 09:54:34;;;;;;;6.40;3.10;;;;;;;;;;5097115;28;20197;-66
2023/11/19 09:57:05;;;;;;;5.60;3.43;;;;;;;;;;5097410;28;20243;-67
2023/11/19 09:59:34;;;;;;;5.33;3.40;;;;;;;;;;5100778;28;20209;-66
2023/11/19 10:08:47;;;;;;;5.07;3.13;;;;;;;;;;5130617;28;20201;-65
2023/11/19 10:11:15;;;;;;;7.67;3.53;;;;;;;;;;5124924;27;20291;-66
2023/11/19 10:13:47;;;;;;;4.73;3.00;;;;;;;;;;5097201;28;20301;-65
2023/11/19 10:16:16;;;;;;;5.53;3.20;;;;;;;;;;5113327;28;20284;-66
2023/11/19 10:18:46;;;;;;;4.47;3.60;;;;;;;;;;5121707;28;20261;-66
2023/11/19 10:21:16;;;;;;;4.40;3.70;;;;;;;;;;5122012;28;20233;-66
2023/11/19 10:23:53;;;;;;;4.67;3.80;;;;;;;;;;5117032;28;20560;-65
2023/11/19 10:26:22;;;;;;;5.90;3.37;;;;;;;;;;5101067;28;20236;-66
2023/11/19 10:28:50;;;;;;;6.07;3.57;;;;;;;;;;5099728;28;20194;-65
2023/11/19 10:31:20;;;;;;;4.00;3.60;;;;;;;;;;5105936;28;20224;-65
2023/11/19 10:33:54;;;;;;;6.00;4.00;;;;;;;;;;5103657;28;20590;-65
2023/11/19 10:36:24;;;;;;;4.63;3.30;;;;;;;;;;5100615;28;20242;-65
2023/11/19 10:38:58;;;;;;;9.13;3.67;;;;;;;;;;5100327;28;20201;-66
2023/11/19 10:41:30;;;;;;;4.97;3.87;;;;;;;;;;5106272;28;20284;-66
2023/11/19 10:44:01;;;;;;;8.20;3.37;;;;;;;;;;5100218;28;20229;-66
2023/11/19 10:46:40;;;;;;;6.07;3.57;;;;;;;;;;5100203;28;20275;-66
2023/11/19 10:49:12;;;;;;;6.57;3.43;;;;;;;;;;5100459;28;20251;-66
2023/11/19 10:51:44;;;;;;;6.77;3.33;;;;;;;;;;5103440;28;20233;-66
2023/11/19 10:54:19;;;;;;;6.60;3.57;;;;;;;;;;5100346;28;20236;-66
2023/11/19 10:56:55;;;;;;;3.33;2.67;;;;;;;;;;5100174;28;20194;-65
2023/11/19 10:59:27;;;;;;;5.87;3.23;;;;;;;;;;5116257;28;20213;-64
2023/11/19 11:02:07;;;;;;;4.30;3.10;;;;;;;;;;5120622;28;20251;-64
2023/11/19 11:04:37;;;;;;;5.60;3.50;;;;;;;;;;5099552;28;20644;-65
2023/11/19 11:07:15;;;;;;;5.40;3.07;;;;;;;;;;5099602;28;20209;-65
2023/11/19 11:09:48;;;;;;;8.23;3.23;;;;;;;;;;5099396;28;20208;-66
2023/11/19 11:12:18;;;;;;;5.10;2.87;;;;;;;;;;5100161;28;20233;-66
2023/11/19 11:14:47;;;;;;;4.03;3.23;;;;;;;;;;5120613;28;20213;-65
2023/11/19 11:17:25;;;;;;;3.87;3.17;;;;;;;;;;5109092;28;20649;-65
2023/11/19 11:20:08;;;;;;;4.23;3.00;;;;;;;;;;5099830;28;20648;-65
2023/11/19 11:22:42;;;;;;;5.53;2.90;;;;;;;;;;5105963;28;20263;-66
2023/11/19 11:25:22;;;;;;;3.70;2.97;;;;;;;;;;5099411;28;20691;-66
2023/11/19 11:27:55;;;;;;;5.83;3.63;;;;;;;;;;5098036;28;20567;-66
2023/11/19 11:30:29;;;;;;;4.63;3.00;;;;;;;;;;5100915;28;20198;-66
2023/11/19 11:33:03;;;;;;;5.10;3.20;;;;;;;;;;5099131;28;20225;-66
2023/11/19 11:35:40;;;;;;;5.13;2.80;;;;;;;;;;5099859;28;20204;-66
2023/11/19 11:38:09;;;;;;;6.30;4.33;;;;;;;;;;5099353;28;20205;-66
2023/11/19 11:40:40;;;;;;;6.97;3.33;;;;;;;;;;5113332;28;20205;-66
2023/11/19 11:43:36;;;;;;;4.83;3.33;;;;;;;;;;5099046;28;20234;-66
2023/11/19 11:46:05;;;;;;;5.17;3.33;;;;;;;;;;5099529;28;20282;-66
2023/11/19 11:48:33;;;;;;;3.20;2.90;;;;;;;;;;5100092;28;20205;-66
2023/11/19 11:51:01;;;;;;;4.13;2.77;;;;;;;;;;5116401;28;20242;-66
2023/11/19 11:53:31;;;;;;;3.70;2.80;;;;;;;;;;5098839;28;20634;-66
2023/11/19 11:56:02;;;;;;;4.87;2.70;;;;;;;;;;5098570;28;20347;-66
2023/11/19 11:58:31;;;;;;;5.63;2.93;;;;;;;;;;5108750;28;20201;-64
2023/11/19 12:01:06;;;;;;;6.03;2.73;;;;;;;;;;5099365;28;20209;-66
2023/11/19 12:03:34;;;;;;;2.80;1.97;;;;;;;;;;5098557;28;20212;-65
2023/11/19 12:06:03;;;;;;;3.63;2.67;;;;;;;;;;5098873;28;20232;-64
2023/11/19 12:08:31;;;;;;;5.33;2.93;;;;;;;;;;5102565;28;20196;-65
2023/11/19 12:11:03;;;;;;;5.17;2.50;;;;;;;;;;5099099;28;20213;-65
2023/11/19 12:13:47;;;;;;;4.13;2.70;;;;;;;;;;5098972;28;20251;-65
2023/11/19 12:16:15;;;;;;;4.67;3.00;;;;;;;;;;5102598;28;20255;-66
2023/11/19 12:18:43;;;;;;;2.73;2.27;;;;;;;;;;5099004;28;20307;-65
2023/11/19 12:21:12;;;;;;;6.73;2.33;;;;;;;;;;5098973;28;20229;-65
2023/11/19 12:23:49;;;;;;;5.80;2.17;;;;;;;;;;5098981;28;20258;-65
2023/11/19 12:26:34;;;;;;;3.20;2.30;;;;;;;;;;5098276;28;20248;-66
2023/11/19 12:29:06;;;;;;;5.93;2.70;;;;;;;;;;5098084;28;20212;-66
2023/11/19 12:31:39;;;;;;;5.43;3.27;;;;;;;;;;5097913;28;20278;-65
2023/11/19 12:34:13;;;;;;;4.10;2.63;;;;;;;;;;5097633;28;20225;-66
2023/11/19 12:36:42;;;;;;;3.77;2.50;;;;;;;;;;5097895;28;20201;-70
2023/11/19 12:39:14;;;;;;;3.23;2.50;;;;;;;;;;5097656;28;20208;-70
2023/11/19 12:41:54;;;;;;;3.33;2.47;;;;;;;;;;5100130;28;20221;-69
2023/11/19 12:44:22;;;;;;;3.27;2.80;;;;;;;;;;5110500;28;20209;-71
2023/11/19 12:47:00;;;;;;;2.10;2.00;;;;;;;;;;5103871;27;20561;-70
2023/11/19 12:49:29;;;;;;;4.77;2.60;;;;;;;;;;5097788;28;20702;-70
2023/11/19 12:51:57;;;;;;;3.43;2.60;;;;;;;;;;5098155;28;20298;-68
2023/11/19 12:54:36;;;;;;;2.57;2.17;;;;;;;;;;5097931;28;20201;-69
2023/11/19 12:57:06;;;;;;;6.30;2.87;;;;;;;;;;5097153;28;20217;-69
2023/11/19 12:59:34;;;;;;;3.87;2.90;;;;;;;;;;5097942;28;20198;-65
2023/11/19 13:02:05;;;;;;;3.20;2.90;;;;;;;;;;5096526;28;20213;-66
2023/11/19 13:04:34;;;;;;;3.00;2.63;;;;;;;;;;5097021;28;20229;-65
2023/11/19 13:07:04;;;;;;;4.57;3.07;;;;;;;;;;5097310;28;20227;-67
2023/11/19 13:09:33;;;;;;;4.23;2.90;;;;;;;;;;5097430;28;20636;-66
2023/11/19 13:12:15;;;;;;;5.37;3.27;;;;;;;;;;5097085;28;20221;-66
2023/11/19 13:14:46;;;;;;;8.33;3.40;;;;;;;;;;5098877;28;20293;-65
2023/11/19 13:17:17;;;;;;;4.63;2.97;;;;;;;;;;5098394;28;20205;-66
2023/11/19 13:19:50;;;;;;;3.40;2.80;;;;;;;;;;5097357;28;20254;-66
2023/11/19 13:22:22;;;;;;;5.93;3.00;;;;;;;;;;5103890;28;20633;-66
2023/11/19 13:24:51;;;;;;;5.77;3.07;;;;;;;;;;5096393;28;20197;-67
2023/11/19 13:27:19;;;;;;;5.43;3.00;;;;;;;;;;5101092;28;20220;-67
2023/11/19 13:29:48;;;;;;;4.47;3.00;;;;;;;;;;5090890;28;20679;-66
2023/11/19 13:32:16;;;;;;;4.03;2.83;;;;;;;;;;5093073;28;20221;-66
2023/11/19 13:34:45;;;;;;;5.03;3.50;;;;;;;;;;5092073;28;20240;-64
2023/11/19 13:37:13;;;;;;;6.23;3.20;;;;;;;;;;5091287;28;20193;-65
2023/11/19 13:39:42;;;;;;;5.57;2.93;;;;;;;;;;5091346;28;20225;-64
2023/11/19 13:42:42;;;;;;;6.73;3.07;;;;;;;;;;5095733;28;20266;-65
2023/11/19 13:45:14;;;;;;;5.83;3.17;;;;;;;;;;5089349;28;20204;-64
2023/11/19 13:47:43;;;;;;;5.30;3.20;;;;;;;;;;5090950;28;20218;-65
2023/11/19 13:50:12;;;;;;;5.10;3.30;;;;;;;;;;5092066;28;20273;-62
2023/11/19 13:52:40;;;;;;;5.40;3.10;;;;;;;;;;5096132;28;20244;-63
2023/11/19 13:55:09;;;;;;;6.53;3.33;;;;;;;;;;5112552;27;20340;-62
2023/11/19 13:57:37;;;;;;;5.37;3.30;;;;;;;;;;5108986;28;20242;-62
2023/11/19 14:00:06;;;;;;;7.57;3.43;;;;;;;;;;5100937;28;20201;-64
2023/11/19 14:02:39;;;;;;;129.50;73.53;;;;;;;;;;5109505;28;20225;-62
2023/11/19 14:05:08;;;;;;;25.90;15.57;;;;;;;;;;5096747;28;20232;-62
2023/11/19 14:07:36;;;;;;;6.30;4.13;;;;;;;;;;5111892;28;20579;-62
2023/11/19 14:10:05;;;;;;;7.80;4.90;;;;;;;;;;5101263;28;20201;-63
2023/11/19 14:12:33;;;;;;;6.10;4.03;;;;;;;;;;5100740;28;20319;-62
2023/11/19 14:15:01;;;;;;;6.67;3.67;;;;;;;;;;5104720;28;20223;-63
2023/11/19 14:17:29;;;;;;;7.10;3.73;;;;;;;;;;5101005;28;20202;-62
2023/11/19 14:19:59;;;;;;;5.43;4.20;;;;;;;;;;5104649;28;20205;-62
2023/11/19 14:22:28;;;;;;;7.10;4.53;;;;;;;;;;5103654;28;20587;-62
2023/11/19 14:24:56;;;;;;;5.63;3.97;;;;;;;;;;5100792;28;20725;-62
2023/11/19 14:27:24;;;;;;;5.30;3.43;;;;;;;;;;5098534;28;20300;-62
2023/11/19 14:29:53;;;;;;;4.03;3.03;;;;;;;;;;5096944;28;20197;-62
2023/11/19 14:32:24;;;;;;;8.97;4.13;;;;;;;;;;5094423;28;20225;-61
2023/11/19 14:34:52;;;;;;;4.93;3.37;;;;;;;;;;5095264;28;20206;-63
2023/11/19 14:37:22;;;;;;;4.40;3.23;;;;;;;;;;5096828;28;20197;-63
2023/11/19 14:39:51;;;;;;;5.23;3.50;;;;;;;;;;5096547;28;20243;-63
2023/11/19 14:42:19;;;;;;;6.13;3.30;;;;;;;;;;5096141;28;20221;-63
2023/11/19 14:44:47;;;;;;;5.27;3.27;;;;;;;;;;5094838;28;20850;-63
2023/11/19 14:47:17;;;;;;;6.37;3.40;;;;;;;;;;5097042;28;20229;-63
2023/11/19 14:49:45;;;;;;;4.57;3.50;;;;;;;;;;5095366;28;20236;-63
2023/11/19 14:52:13;;;;;;;4.70;3.13;;;;;;;;;;5098362;28;20240;-62
2023/11/19 14:54:46;;;;;;;4.27;3.37;;;;;;;;;;5102335;27;20197;-63
2023/11/19 14:57:14;;;;;;;5.60;3.70;;;;;;;;;;5100635;27;20201;-63
2023/11/19 14:59:42;;;;;;;4.57;3.37;;;;;;;;;;5107035;27;20204;-62
2023/11/19 15:02:11;;;;;;;38.10;24.87;;;;;;;;;;5099774;27;20223;-63
2023/11/19 15:04:41;;;;;;;37.30;24.43;;;;;;;;;;5115546;27;20282;-63
2023/11/19 15:07:10;;;;;;;24.10;13.83;;;;;;;;;;5126328;27;20220;-62
2023/11/19 15:09:38;;;;;;;7.73;5.57;;;;;;;;;;5127415;27;20217;-61
2023/11/19 15:12:08;;;;;;;7.93;4.47;;;;;;;;;;5124441;27;20244;-63